sensor_id;sensor_type;location;lat;lon;timestamp;P1;durP1;ratioP1;P2;durP2;ratioP2
10823;SDS011;39116;59.332;18.034;2023-04-25T00:00:27;4.20;;;2.87;;
10823;SDS011;39116;59.332;18.034;2023-04-25T00:02:49;3.17;;;2.87;;
10823;SDS011;39116;59.332;18.034;2023-04-25T00:05:11;4.17;;;3.30;;
10823;SDS011;39116;59.332;18.034;2023-04-25T00:07:36;5.10;;;3.47;;
10823;SDS011;39116;59.332;18.034;2023-04-25T00:09:58;5.03;;;3.70;;
10823;SDS011;39116;59.332;18.034;2023-04-25T00:12:20;4.73;;;3.80;;
10823;SDS011;39116;59.332;18.034;2023-04-25T00:14:43;5.07;;;3.90;;
10823;SDS011;39116;59.332;18.034;2023-04-25T00:17:05;4.03;;;3.63;;
10823;SDS011;39116;59.332;18.034;2023-04-25T00:19:27;6.10;;;4.37;;
10823;SDS011;39116;59.332;18.034;2023-04-25T00:21:49;4.80;;;3.73;;
10823;SDS011;39116;59.332;18.034;2023-04-25T00:24:12;5.10;;;4.20;;
10823;SDS011;39116;59.332;18.034;2023-04-25T00:26:34;5.37;;;3.63;;
10823;SDS011;39116;59.332;18.034;2023-04-25T00:28:57;4.33;;;3.73;;
10823;SDS011;39116;59.332;18.034;2023-04-25T00:31:19;5.13;;;3.90;;
10823;SDS011;39116;59.332;18.034;2023-04-25T00:33:40;4.73;;;3.67;;
10823;SDS011;39116;59.332;18.034;2023-04-25T00:36:03;5.07;;;3.77;;
10823;SDS011;39116;59.332;18.034;2023-04-25T00:38:25;5.27;;;4.10;;
10823;SDS011;39116;59.332;18.034;2023-04-25T00:40:48;6.97;;;3.63;;
10823;SDS011;39116;59.332;18.034;2023-04-25T00:43:10;4.60;;;3.67;;
10823;SDS011;39116;59.332;18.034;2023-04-25T00:45:32;4.67;;;3.40;;
10823;SDS011;39116;59.332;18.034;2023-04-25T00:47:59;3.60;;;3.30;;
10823;SDS011;39116;59.332;18.034;2023-04-25T00:50:21;5.43;;;3.33;;
10823;SDS011;39116;59.332;18.034;2023-04-25T00:52:43;5.80;;;3.70;;
10823;SDS011;39116;59.332;18.034;2023-04-25T00:55:06;5.57;;;3.43;;
10823;SDS011;39116;59.332;18.034;2023-04-25T00:57:30;4.20;;;3.80;;
10823;SDS011;39116;59.332;18.034;2023-04-25T00:59:52;4.27;;;3.33;;
10823;SDS011;39116;59.332;18.034;2023-04-25T01:02:14;4.43;;;3.43;;
10823;SDS011;39116;59.332;18.034;2023-04-25T01:04:36;5.33;;;3.37;;
10823;SDS011;39116;59.332;18.034;2023-04-25T01:06:58;5.47;;;3.67;;
10823;SDS011;39116;59.332;18.034;2023-04-25T01:09:22;5.53;;;3.63;;
10823;SDS011;39116;59.332;18.034;2023-04-25T01:11:45;3.80;;;3.13;;
10823;SDS011;39116;59.332;18.034;2023-04-25T01:14:08;4.40;;;3.47;;
10823;SDS011;39116;59.332;18.034;2023-04-25T01:16:30;3.40;;;3.10;;
10823;SDS011;39116;59.332;18.034;2023-04-25T01:18:53;3.67;;;3.20;;
10823;SDS011;39116;59.332;18.034;2023-04-25T01:21:17;4.33;;;3.50;;
10823;SDS011;39116;59.332;18.034;2023-04-25T01:23:40;4.93;;;3.00;;
10823;SDS011;39116;59.332;18.034;2023-04-25T01:26:03;4.37;;;2.77;;
10823;SDS011;39116;59.332;18.034;2023-04-25T01:28:25;4.17;;;3.30;;
10823;SDS011;39116;59.332;18.034;2023-04-25T01:30:47;4.60;;;3.10;;
10823;SDS011;39116;59.332;18.034;2023-04-25T01:33:09;4.13;;;3.40;;
10823;SDS011;39116;59.332;18.034;2023-04-25T01:35:32;5.03;;;3.90;;
10823;SDS011;39116;59.332;18.034;2023-04-25T01:37:56;5.03;;;3.40;;
10823;SDS011;39116;59.332;18.034;2023-04-25T01:40:17;5.00;;;3.20;;
10823;SDS011;39116;59.332;18.034;2023-04-25T01:42:42;4.73;;;3.40;;
10823;SDS011;39116;59.332;18.034;2023-04-25T01:45:05;3.50;;;3.13;;
10823;SDS011;39116;59.332;18.034;2023-04-25T01:47:28;6.13;;;3.73;;
10823;SDS011;39116;59.332;18.034;2023-04-25T01:49:50;4.63;;;3.63;;
10823;SDS011;39116;59.332;18.034;2023-04-25T01:52:12;5.30;;;3.60;;
10823;SDS011;39116;59.332;18.034;2023-04-25T01:54:35;4.47;;;3.63;;
10823;SDS011;39116;59.332;18.034;2023-04-25T01:56:57;4.83;;;3.70;;
10823;SDS011;39116;59.332;18.034;2023-04-25T01:59:20;5.33;;;3.23;;
10823;SDS011;39116;59.332;18.034;2023-04-25T02:01:42;4.43;;;3.07;;
10823;SDS011;39116;59.332;18.034;2023-04-25T02:04:04;5.17;;;3.07;;
10823;SDS011;39116;59.332;18.034;2023-04-25T02:06:26;5.13;;;3.27;;
10823;SDS011;39116;59.332;18.034;2023-04-25T02:08:48;3.20;;;2.77;;
10823;SDS011;39116;59.332;18.034;2023-04-25T02:11:11;4.27;;;3.30;;
10823;SDS011;39116;59.332;18.034;2023-04-25T02:13:33;5.03;;;2.80;;
10823;SDS011;39116;59.332;18.034;2023-04-25T02:15:55;4.70;;;2.67;;
10823;SDS011;39116;59.332;18.034;2023-04-25T02:18:17;4.53;;;2.20;;
10823;SDS011;39116;59.332;18.034;2023-04-25T02:20:41;2.67;;;2.27;;
10823;SDS011;39116;59.332;18.034;2023-04-25T02:23:03;2.97;;;2.40;;
10823;SDS011;39116;59.332;18.034;2023-04-25T02:25:25;2.80;;;2.27;;
10823;SDS011;39116;59.332;18.034;2023-04-25T02:27:49;2.47;;;2.17;;
10823;SDS011;39116;59.332;18.034;2023-04-25T02:30:11;2.47;;;2.27;;
10823;SDS011;39116;59.332;18.034;2023-04-25T02:32:33;2.40;;;2.20;;
10823;SDS011;39116;59.332;18.034;2023-04-25T02:34:55;3.00;;;2.10;;
10823;SDS011;39116;59.332;18.034;2023-04-25T02:37:18;2.00;;;1.80;;
10823;SDS011;39116;59.332;18.034;2023-04-25T02:39:40;2.33;;;2.00;;
10823;SDS011;39116;59.332;18.034;2023-04-25T02:42:02;1.93;;;1.70;;
10823;SDS011;39116;59.332;18.034;2023-04-25T02:44:26;2.20;;;1.67;;
10823;SDS011;39116;59.332;18.034;2023-04-25T02:46:48;2.83;;;1.77;;
10823;SDS011;39116;59.332;18.034;2023-04-25T02:49:10;2.10;;;1.53;;
10823;SDS011;39116;59.332;18.034;2023-04-25T02:51:31;1.60;;;1.40;;
10823;SDS011;39116;59.332;18.034;2023-04-25T02:53:53;2.57;;;1.53;;
10823;SDS011;39116;59.332;18.034;2023-04-25T02:56:15;2.53;;;2.00;;
10823;SDS011;39116;59.332;18.034;2023-04-25T02:58:37;1.60;;;1.50;;
10823;SDS011;39116;59.332;18.034;2023-04-25T03:01:01;1.90;;;1.60;;
10823;SDS011;39116;59.332;18.034;2023-04-25T03:03:23;1.93;;;1.50;;
10823;SDS011;39116;59.332;18.034;2023-04-25T03:05:45;1.83;;;1.50;;
10823;SDS011;39116;59.332;18.034;2023-04-25T03:08:07;1.40;;;1.30;;
10823;SDS011;39116;59.332;18.034;2023-04-25T03:10:29;1.53;;;1.37;;
10823;SDS011;39116;59.332;18.034;2023-04-25T03:12:50;2.93;;;1.60;;
10823;SDS011;39116;59.332;18.034;2023-04-25T03:15:12;1.60;;;1.50;;
10823;SDS011;39116;59.332;18.034;2023-04-25T03:17:38;1.30;;;1.20;;
10823;SDS011;39116;59.332;18.034;2023-04-25T03:20:00;1.40;;;1.30;;
10823;SDS011;39116;59.332;18.034;2023-04-25T03:22:24;1.60;;;1.50;;
10823;SDS011;39116;59.332;18.034;2023-04-25T03:24:46;1.40;;;1.30;;
10823;SDS011;39116;59.332;18.034;2023-04-25T03:27:08;1.43;;;1.33;;
10823;SDS011;39116;59.332;18.034;2023-04-25T03:29:30;1.70;;;1.30;;
10823;SDS011;39116;59.332;18.034;2023-04-25T03:31:52;1.93;;;1.27;;
10823;SDS011;39116;59.332;18.034;2023-04-25T03:34:15;1.83;;;1.30;;
10823;SDS011;39116;59.332;18.034;2023-04-25T03:36:37;1.30;;;1.20;;
10823;SDS011;39116;59.332;18.034;2023-04-25T03:38:59;1.40;;;1.30;;
10823;SDS011;39116;59.332;18.034;2023-04-25T03:41:21;1.30;;;1.20;;
10823;SDS011;39116;59.332;18.034;2023-04-25T03:43:43;1.47;;;1.37;;
10823;SDS011;39116;59.332;18.034;2023-04-25T03:46:05;2.37;;;1.30;;
10823;SDS011;39116;59.332;18.034;2023-04-25T03:48:26;1.33;;;1.23;;
10823;SDS011;39116;59.332;18.034;2023-04-25T03:50:50;2.43;;;1.10;;
10823;SDS011;39116;59.332;18.034;2023-04-25T03:53:12;1.57;;;1.40;;
10823;SDS011;39116;59.332;18.034;2023-04-25T03:55:34;1.50;;;1.40;;
10823;SDS011;39116;59.332;18.034;2023-04-25T03:57:56;1.63;;;1.30;;
10823;SDS011;39116;59.332;18.034;2023-04-25T04:00:19;2.40;;;1.70;;
10823;SDS011;39116;59.332;18.034;2023-04-25T04:02:41;1.30;;;1.20;;
10823;SDS011;39116;59.332;18.034;2023-04-25T04:05:03;1.27;;;1.17;;
10823;SDS011;39116;59.332;18.034;2023-04-25T04:07:27;1.10;;;1.00;;
10823;SDS011;39116;59.332;18.034;2023-04-25T04:09:49;1.37;;;1.20;;
10823;SDS011;39116;59.332;18.034;2023-04-25T04:12:11;1.60;;;1.20;;
10823;SDS011;39116;59.332;18.034;2023-04-25T04:14:32;2.73;;;1.23;;
10823;SDS011;39116;59.332;18.034;2023-04-25T04:16:54;1.40;;;1.30;;
10823;SDS011;39116;59.332;18.034;2023-04-25T04:19:16;1.60;;;1.47;;
10823;SDS011;39116;59.332;18.034;2023-04-25T04:21:38;3.07;;;1.50;;
10823;SDS011;39116;59.332;18.034;2023-04-25T04:24:02;3.60;;;2.03;;
10823;SDS011;39116;59.332;18.034;2023-04-25T04:26:24;2.30;;;1.67;;
10823;SDS011;39116;59.332;18.034;2023-04-25T04:28:46;2.00;;;1.80;;
10823;SDS011;39116;59.332;18.034;2023-04-25T04:31:08;5.07;;;1.80;;
10823;SDS011;39116;59.332;18.034;2023-04-25T04:33:30;5.70;;;1.90;;
10823;SDS011;39116;59.332;18.034;2023-04-25T04:35:52;2.33;;;2.10;;
10823;SDS011;39116;59.332;18.034;2023-04-25T04:38:15;2.63;;;2.13;;
10823;SDS011;39116;59.332;18.034;2023-04-25T04:40:40;3.47;;;2.20;;
10823;SDS011;39116;59.332;18.034;2023-04-25T04:43:03;3.50;;;2.20;;
10823;SDS011;39116;59.332;18.034;2023-04-25T04:45:25;2.93;;;2.33;;
10823;SDS011;39116;59.332;18.034;2023-04-25T04:47:47;4.07;;;2.50;;
10823;SDS011;39116;59.332;18.034;2023-04-25T04:50:10;6.03;;;2.50;;
10823;SDS011;39116;59.332;18.034;2023-04-25T04:52:32;2.47;;;2.20;;
10823;SDS011;39116;59.332;18.034;2023-04-25T04:54:54;5.73;;;2.50;;
10823;SDS011;39116;59.332;18.034;2023-04-25T04:57:17;7.80;;;2.80;;
10823;SDS011;39116;59.332;18.034;2023-04-25T04:59:39;5.73;;;2.83;;
10823;SDS011;39116;59.332;18.034;2023-04-25T05:02:01;5.17;;;3.00;;
10823;SDS011;39116;59.332;18.034;2023-04-25T05:04:23;4.23;;;2.70;;
10823;SDS011;39116;59.332;18.034;2023-04-25T05:06:45;5.77;;;3.00;;
10823;SDS011;39116;59.332;18.034;2023-04-25T05:09:07;5.43;;;3.10;;
10823;SDS011;39116;59.332;18.034;2023-04-25T05:11:29;6.87;;;3.30;;
10823;SDS011;39116;59.332;18.034;2023-04-25T05:13:52;5.83;;;3.77;;
10823;SDS011;39116;59.332;18.034;2023-04-25T05:16:14;5.43;;;3.33;;
10823;SDS011;39116;59.332;18.034;2023-04-25T05:18:36;5.70;;;3.87;;
10823;SDS011;39116;59.332;18.034;2023-04-25T05:20:58;6.37;;;3.70;;
10823;SDS011;39116;59.332;18.034;2023-04-25T05:23:20;6.10;;;3.73;;
10823;SDS011;39116;59.332;18.034;2023-04-25T05:25:42;6.70;;;4.17;;
10823;SDS011;39116;59.332;18.034;2023-04-25T05:28:04;5.57;;;3.77;;
10823;SDS011;39116;59.332;18.034;2023-04-25T05:30:27;6.17;;;3.67;;
10823;SDS011;39116;59.332;18.034;2023-04-25T05:32:49;6.93;;;3.67;;
10823;SDS011;39116;59.332;18.034;2023-04-25T05:35:11;5.63;;;3.70;;
10823;SDS011;39116;59.332;18.034;2023-04-25T05:37:33;5.80;;;3.70;;
10823;SDS011;39116;59.332;18.034;2023-04-25T05:39:55;9.87;;;3.70;;
10823;SDS011;39116;59.332;18.034;2023-04-25T05:42:17;5.87;;;3.80;;
10823;SDS011;39116;59.332;18.034;2023-04-25T05:44:39;5.30;;;3.87;;
10823;SDS011;39116;59.332;18.034;2023-04-25T05:47:02;5.50;;;3.80;;
10823;SDS011;39116;59.332;18.034;2023-04-25T05:49:25;5.33;;;3.80;;
10823;SDS011;39116;59.332;18.034;2023-04-25T05:51:47;3.83;;;3.43;;
10823;SDS011;39116;59.332;18.034;2023-04-25T05:54:08;5.83;;;3.77;;
10823;SDS011;39116;59.332;18.034;2023-04-25T05:56:30;5.67;;;3.73;;
10823;SDS011;39116;59.332;18.034;2023-04-25T05:58:52;5.67;;;3.13;;
10823;SDS011;39116;59.332;18.034;2023-04-25T06:01:15;3.97;;;3.37;;
10823;SDS011;39116;59.332;18.034;2023-04-25T06:03:38;6.77;;;3.40;;
10823;SDS011;39116;59.332;18.034;2023-04-25T06:06:03;5.37;;;3.17;;
10823;SDS011;39116;59.332;18.034;2023-04-25T06:08:25;5.80;;;3.43;;
10823;SDS011;39116;59.332;18.034;2023-04-25T06:10:47;5.37;;;3.73;;
10823;SDS011;39116;59.332;18.034;2023-04-25T06:13:09;6.87;;;3.43;;
10823;SDS011;39116;59.332;18.034;2023-04-25T06:15:31;5.20;;;3.20;;
10823;SDS011;39116;59.332;18.034;2023-04-25T06:17:53;5.00;;;3.40;;
10823;SDS011;39116;59.332;18.034;2023-04-25T06:20:17;7.33;;;3.47;;
10823;SDS011;39116;59.332;18.034;2023-04-25T06:22:43;4.77;;;3.20;;
10823;SDS011;39116;59.332;18.034;2023-04-25T06:25:05;3.60;;;2.80;;
10823;SDS011;39116;59.332;18.034;2023-04-25T06:27:27;5.33;;;3.17;;
10823;SDS011;39116;59.332;18.034;2023-04-25T06:29:49;5.77;;;3.40;;
10823;SDS011;39116;59.332;18.034;2023-04-25T06:32:11;4.63;;;2.73;;
10823;SDS011;39116;59.332;18.034;2023-04-25T06:34:33;3.93;;;2.43;;
10823;SDS011;39116;59.332;18.034;2023-04-25T06:36:56;3.47;;;2.80;;
10823;SDS011;39116;59.332;18.034;2023-04-25T06:39:18;4.43;;;2.73;;
10823;SDS011;39116;59.332;18.034;2023-04-25T06:41:43;4.30;;;2.80;;
10823;SDS011;39116;59.332;18.034;2023-04-25T06:44:05;3.23;;;2.90;;
10823;SDS011;39116;59.332;18.034;2023-04-25T06:46:27;3.70;;;2.83;;
10823;SDS011;39116;59.332;18.034;2023-04-25T06:48:49;3.90;;;3.00;;
10823;SDS011;39116;59.332;18.034;2023-04-25T06:51:11;4.15;;;3.00;;
10823;SDS011;39116;59.332;18.034;2023-04-25T06:53:35;5.10;;;3.23;;
10823;SDS011;39116;59.332;18.034;2023-04-25T06:55:57;4.00;;;3.00;;
10823;SDS011;39116;59.332;18.034;2023-04-25T06:58:19;4.13;;;2.73;;
10823;SDS011;39116;59.332;18.034;2023-04-25T07:00:41;3.63;;;2.80;;
10823;SDS011;39116;59.332;18.034;2023-04-25T07:03:03;4.53;;;2.70;;
10823;SDS011;39116;59.332;18.034;2023-04-25T07:05:25;3.00;;;2.70;;
10823;SDS011;39116;59.332;18.034;2023-04-25T07:07:47;3.53;;;2.90;;
10823;SDS011;39116;59.332;18.034;2023-04-25T07:10:10;4.33;;;2.77;;
10823;SDS011;39116;59.332;18.034;2023-04-25T07:12:32;3.53;;;2.80;;
10823;SDS011;39116;59.332;18.034;2023-04-25T07:14:54;3.97;;;2.70;;
10823;SDS011;39116;59.332;18.034;2023-04-25T07:17:15;4.85;;;3.20;;
10823;SDS011;39116;59.332;18.034;2023-04-25T07:19:37;4.77;;;2.83;;
10823;SDS011;39116;59.332;18.034;2023-04-25T07:22:00;3.97;;;3.10;;
10823;SDS011;39116;59.332;18.034;2023-04-25T07:24:22;4.50;;;3.43;;
10823;SDS011;39116;59.332;18.034;2023-04-25T07:26:45;4.37;;;2.90;;
10823;SDS011;39116;59.332;18.034;2023-04-25T07:29:07;3.50;;;3.10;;
10823;SDS011;39116;59.332;18.034;2023-04-25T07:31:29;4.60;;;3.00;;
10823;SDS011;39116;59.332;18.034;2023-04-25T07:33:51;4.40;;;3.20;;
10823;SDS011;39116;59.332;18.034;2023-04-25T07:36:13;5.20;;;3.40;;
10823;SDS011;39116;59.332;18.034;2023-04-25T07:38:35;4.27;;;3.17;;
10823;SDS011;39116;59.332;18.034;2023-04-25T07:40:57;4.47;;;3.10;;
10823;SDS011;39116;59.332;18.034;2023-04-25T07:43:20;4.67;;;3.27;;
10823;SDS011;39116;59.332;18.034;2023-04-25T07:45:42;3.97;;;2.93;;
10823;SDS011;39116;59.332;18.034;2023-04-25T07:48:04;4.22;;;3.00;;
10823;SDS011;39116;59.332;18.034;2023-04-25T07:50:26;4.35;;;2.90;;
10823;SDS011;39116;59.332;18.034;2023-04-25T07:52:48;3.90;;;3.15;;
10823;SDS011;39116;59.332;18.034;2023-04-25T07:55:10;4.13;;;3.17;;
10823;SDS011;39116;59.332;18.034;2023-04-25T07:57:32;4.13;;;3.60;;
10823;SDS011;39116;59.332;18.034;2023-04-25T07:59:55;4.68;;;3.33;;
10823;SDS011;39116;59.332;18.034;2023-04-25T08:02:17;3.85;;;2.92;;
10823;SDS011;39116;59.332;18.034;2023-04-25T08:04:39;4.47;;;3.67;;
10823;SDS011;39116;59.332;18.034;2023-04-25T08:07:01;5.33;;;3.63;;
10823;SDS011;39116;59.332;18.034;2023-04-25T08:09:23;5.65;;;4.32;;
10823;SDS011;39116;59.332;18.034;2023-04-25T08:11:45;3.67;;;3.27;;
10823;SDS011;39116;59.332;18.034;2023-04-25T08:14:07;4.78;;;3.75;;
10823;SDS011;39116;59.332;18.034;2023-04-25T08:16:30;6.97;;;4.13;;
10823;SDS011;39116;59.332;18.034;2023-04-25T08:18:52;8.60;;;4.32;;
10823;SDS011;39116;59.332;18.034;2023-04-25T08:21:14;5.07;;;4.00;;
10823;SDS011;39116;59.332;18.034;2023-04-25T08:23:36;5.25;;;4.07;;
10823;SDS011;39116;59.332;18.034;2023-04-25T08:25:58;7.25;;;4.50;;
10823;SDS011;39116;59.332;18.034;2023-04-25T08:28:20;7.10;;;5.07;;
10823;SDS011;39116;59.332;18.034;2023-04-25T08:30:42;7.85;;;6.22;;
10823;SDS011;39116;59.332;18.034;2023-04-25T08:33:05;9.98;;;7.22;;
10823;SDS011;39116;59.332;18.034;2023-04-25T08:35:28;12.40;;;9.73;;
10823;SDS011;39116;59.332;18.034;2023-04-25T08:37:50;15.90;;;11.27;;
10823;SDS011;39116;59.332;18.034;2023-04-25T08:40:12;16.33;;;11.13;;
10823;SDS011;39116;59.332;18.034;2023-04-25T08:42:36;13.63;;;11.70;;
10823;SDS011;39116;59.332;18.034;2023-04-25T08:44:59;14.38;;;10.65;;
10823;SDS011;39116;59.332;18.034;2023-04-25T08:47:23;16.67;;;10.20;;
10823;SDS011;39116;59.332;18.034;2023-04-25T08:49:47;13.60;;;10.65;;
10823;SDS011;39116;59.332;18.034;2023-04-25T08:52:10;12.70;;;11.15;;
10823;SDS011;39116;59.332;18.034;2023-04-25T08:54:34;14.90;;;11.23;;
10823;SDS011;39116;59.332;18.034;2023-04-25T08:56:57;14.50;;;11.02;;
10823;SDS011;39116;59.332;18.034;2023-04-25T08:59:22;11.77;;;10.15;;
10823;SDS011;39116;59.332;18.034;2023-04-25T09:01:44;14.07;;;9.88;;
10823;SDS011;39116;59.332;18.034;2023-04-25T09:04:06;11.55;;;8.75;;
10823;SDS011;39116;59.332;18.034;2023-04-25T09:06:29;12.68;;;9.68;;
10823;SDS011;39116;59.332;18.034;2023-04-25T09:08:52;14.48;;;10.20;;
10823;SDS011;39116;59.332;18.034;2023-04-25T09:11:14;14.77;;;10.85;;
10823;SDS011;39116;59.332;18.034;2023-04-25T09:13:36;12.63;;;10.38;;
10823;SDS011;39116;59.332;18.034;2023-04-25T09:15:58;14.35;;;10.70;;
10823;SDS011;39116;59.332;18.034;2023-04-25T09:18:23;13.95;;;10.57;;
10823;SDS011;39116;59.332;18.034;2023-04-25T09:20:49;15.45;;;10.15;;
10823;SDS011;39116;59.332;18.034;2023-04-25T09:23:12;14.57;;;10.68;;
10823;SDS011;39116;59.332;18.034;2023-04-25T09:25:36;17.40;;;10.88;;
10823;SDS011;39116;59.332;18.034;2023-04-25T09:27:59;13.98;;;9.70;;
10823;SDS011;39116;59.332;18.034;2023-04-25T09:30:29;13.80;;;9.93;;
10823;SDS011;39116;59.332;18.034;2023-04-25T09:32:51;11.50;;;8.45;;
10823;SDS011;39116;59.332;18.034;2023-04-25T09:35:23;12.05;;;9.70;;
10823;SDS011;39116;59.332;18.034;2023-04-25T09:37:45;13.98;;;9.77;;
10823;SDS011;39116;59.332;18.034;2023-04-25T09:40:09;12.88;;;10.20;;
10823;SDS011;39116;59.332;18.034;2023-04-25T09:42:33;13.13;;;8.63;;
10823;SDS011;39116;59.332;18.034;2023-04-25T09:44:56;13.55;;;9.25;;
10823;SDS011;39116;59.332;18.034;2023-04-25T09:47:18;11.18;;;8.75;;
10823;SDS011;39116;59.332;18.034;2023-04-25T09:49:41;10.68;;;7.88;;
10823;SDS011;39116;59.332;18.034;2023-04-25T09:52:04;9.88;;;7.20;;
10823;SDS011;39116;59.332;18.034;2023-04-25T09:54:26;12.00;;;8.07;;
10823;SDS011;39116;59.332;18.034;2023-04-25T09:56:49;8.88;;;6.55;;
10823;SDS011;39116;59.332;18.034;2023-04-25T09:59:13;10.05;;;7.25;;
10823;SDS011;39116;59.332;18.034;2023-04-25T10:01:36;7.32;;;6.38;;
10823;SDS011;39116;59.332;18.034;2023-04-25T10:04:01;7.80;;;6.72;;
10823;SDS011;39116;59.332;18.034;2023-04-25T10:06:26;7.32;;;5.95;;
10823;SDS011;39116;59.332;18.034;2023-04-25T10:08:50;8.52;;;6.50;;
10823;SDS011;39116;59.332;18.034;2023-04-25T10:11:15;7.07;;;6.40;;
10823;SDS011;39116;59.332;18.034;2023-04-25T10:13:39;7.15;;;6.07;;
10823;SDS011;39116;59.332;18.034;2023-04-25T10:16:03;8.07;;;6.53;;
10823;SDS011;39116;59.332;18.034;2023-04-25T10:18:26;8.35;;;7.38;;
10823;SDS011;39116;59.332;18.034;2023-04-25T10:20:49;9.23;;;7.78;;
10823;SDS011;39116;59.332;18.034;2023-04-25T10:23:12;11.88;;;8.23;;
10823;SDS011;39116;59.332;18.034;2023-04-25T10:25:35;13.45;;;7.97;;
10823;SDS011;39116;59.332;18.034;2023-04-25T10:27:57;11.32;;;8.27;;
10823;SDS011;39116;59.332;18.034;2023-04-25T10:30:22;10.85;;;8.82;;
10823;SDS011;39116;59.332;18.034;2023-04-25T10:32:45;10.32;;;7.40;;
10823;SDS011;39116;59.332;18.034;2023-04-25T10:35:10;11.40;;;8.25;;
10823;SDS011;39116;59.332;18.034;2023-04-25T10:37:33;13.02;;;8.70;;
10823;SDS011;39116;59.332;18.034;2023-04-25T10:39:56;12.02;;;7.97;;
10823;SDS011;39116;59.332;18.034;2023-04-25T10:42:18;11.00;;;8.40;;
10823;SDS011;39116;59.332;18.034;2023-04-25T10:44:40;12.60;;;8.52;;
10823;SDS011;39116;59.332;18.034;2023-04-25T10:47:03;14.18;;;8.27;;
10823;SDS011;39116;59.332;18.034;2023-04-25T10:49:29;11.50;;;8.13;;
10823;SDS011;39116;59.332;18.034;2023-04-25T10:51:58;16.70;;;10.73;;
10823;SDS011;39116;59.332;18.034;2023-04-25T10:54:33;13.70;;;8.70;;
10823;SDS011;39116;59.332;18.034;2023-04-25T10:56:55;9.88;;;8.02;;
10823;SDS011;39116;59.332;18.034;2023-04-25T10:59:20;12.02;;;8.50;;
10823;SDS011;39116;59.332;18.034;2023-04-25T11:01:47;10.90;;;8.60;;
10823;SDS011;39116;59.332;18.034;2023-04-25T11:04:20;13.75;;;8.90;;
10823;SDS011;39116;59.332;18.034;2023-04-25T11:06:45;9.75;;;7.38;;
10823;SDS011;39116;59.332;18.034;2023-04-25T11:09:17;9.85;;;7.22;;
10823;SDS011;39116;59.332;18.034;2023-04-25T11:11:39;9.55;;;7.72;;
10823;SDS011;39116;59.332;18.034;2023-04-25T11:14:01;12.02;;;8.13;;
10823;SDS011;39116;59.332;18.034;2023-04-25T11:16:23;8.60;;;7.40;;
10823;SDS011;39116;59.332;18.034;2023-04-25T11:18:45;11.95;;;7.93;;
10823;SDS011;39116;59.332;18.034;2023-04-25T11:21:10;11.45;;;8.50;;
10823;SDS011;39116;59.332;18.034;2023-04-25T11:23:32;9.40;;;7.35;;
10823;SDS011;39116;59.332;18.034;2023-04-25T11:25:54;10.77;;;7.57;;
10823;SDS011;39116;59.332;18.034;2023-04-25T11:28:20;12.20;;;8.10;;
10823;SDS011;39116;59.332;18.034;2023-04-25T11:30:47;10.98;;;7.75;;
10823;SDS011;39116;59.332;18.034;2023-04-25T11:33:10;10.38;;;7.78;;
10823;SDS011;39116;59.332;18.034;2023-04-25T11:35:32;9.13;;;7.50;;
10823;SDS011;39116;59.332;18.034;2023-04-25T11:37:55;8.73;;;6.78;;
10823;SDS011;39116;59.332;18.034;2023-04-25T11:40:17;10.38;;;8.02;;
10823;SDS011;39116;59.332;18.034;2023-04-25T11:42:39;10.13;;;7.57;;
10823;SDS011;39116;59.332;18.034;2023-04-25T11:45:06;10.48;;;7.47;;
10823;SDS011;39116;59.332;18.034;2023-04-25T11:47:29;9.30;;;7.28;;
10823;SDS011;39116;59.332;18.034;2023-04-25T11:49:52;11.27;;;7.65;;
10823;SDS011;39116;59.332;18.034;2023-04-25T11:52:15;9.23;;;7.35;;
10823;SDS011;39116;59.332;18.034;2023-04-25T11:54:38;11.07;;;7.05;;
10823;SDS011;39116;59.332;18.034;2023-04-25T11:57:01;11.63;;;7.45;;
10823;SDS011;39116;59.332;18.034;2023-04-25T11:59:24;10.10;;;7.32;;
10823;SDS011;39116;59.332;18.034;2023-04-25T12:01:47;10.57;;;7.45;;
10823;SDS011;39116;59.332;18.034;2023-04-25T12:04:10;9.43;;;7.00;;
10823;SDS011;39116;59.332;18.034;2023-04-25T12:06:33;10.77;;;6.72;;
10823;SDS011;39116;59.332;18.034;2023-04-25T12:09:00;7.55;;;6.65;;
10823;SDS011;39116;59.332;18.034;2023-04-25T12:11:25;7.78;;;6.35;;
10823;SDS011;39116;59.332;18.034;2023-04-25T12:13:51;11.40;;;6.22;;
10823;SDS011;39116;59.332;18.034;2023-04-25T12:16:13;8.45;;;6.40;;
10823;SDS011;39116;59.332;18.034;2023-04-25T12:18:35;11.30;;;6.90;;
10823;SDS011;39116;59.332;18.034;2023-04-25T12:20:57;10.02;;;6.93;;
10823;SDS011;39116;59.332;18.034;2023-04-25T12:23:25;8.88;;;6.47;;
10823;SDS011;39116;59.332;18.034;2023-04-25T12:25:48;13.73;;;7.00;;
10823;SDS011;39116;59.332;18.034;2023-04-25T12:28:15;9.48;;;6.70;;
10823;SDS011;39116;59.332;18.034;2023-04-25T12:30:52;10.57;;;6.53;;
10823;SDS011;39116;59.332;18.034;2023-04-25T12:33:17;10.30;;;6.57;;
10823;SDS011;39116;59.332;18.034;2023-04-25T12:35:39;8.73;;;6.13;;
10823;SDS011;39116;59.332;18.034;2023-04-25T12:38:01;8.40;;;6.47;;
10823;SDS011;39116;59.332;18.034;2023-04-25T12:40:23;13.23;;;6.70;;
10823;SDS011;39116;59.332;18.034;2023-04-25T12:42:45;10.95;;;6.70;;
10823;SDS011;39116;59.332;18.034;2023-04-25T12:45:09;8.75;;;6.15;;
10823;SDS011;39116;59.332;18.034;2023-04-25T12:47:31;7.45;;;5.95;;
10823;SDS011;39116;59.332;18.034;2023-04-25T12:49:55;9.30;;;6.20;;
10823;SDS011;39116;59.332;18.034;2023-04-25T12:52:17;12.30;;;6.10;;
10823;SDS011;39116;59.332;18.034;2023-04-25T12:54:39;7.95;;;5.60;;
10823;SDS011;39116;59.332;18.034;2023-04-25T12:57:01;11.60;;;5.65;;
10823;SDS011;39116;59.332;18.034;2023-04-25T12:59:23;9.90;;;5.60;;
10823;SDS011;39116;59.332;18.034;2023-04-25T13:01:46;7.63;;;5.43;;
10823;SDS011;39116;59.332;18.034;2023-04-25T13:04:08;6.13;;;4.93;;
10823;SDS011;39116;59.332;18.034;2023-04-25T13:06:30;8.90;;;5.75;;
10823;SDS011;39116;59.332;18.034;2023-04-25T13:08:52;8.82;;;6.47;;
10823;SDS011;39116;59.332;18.034;2023-04-25T13:11:14;10.02;;;5.57;;
10823;SDS011;39116;59.332;18.034;2023-04-25T13:13:36;7.95;;;5.40;;
10823;SDS011;39116;59.332;18.034;2023-04-25T13:16:00;7.93;;;5.13;;
10823;SDS011;39116;59.332;18.034;2023-04-25T13:18:23;7.80;;;5.32;;
10823;SDS011;39116;59.332;18.034;2023-04-25T13:20:46;6.68;;;5.32;;
10823;SDS011;39116;59.332;18.034;2023-04-25T13:23:08;7.72;;;4.40;;
10823;SDS011;39116;59.332;18.034;2023-04-25T13:25:30;8.13;;;4.45;;
10823;SDS011;39116;59.332;18.034;2023-04-25T13:27:52;8.35;;;4.55;;
10823;SDS011;39116;59.332;18.034;2023-04-25T13:30:14;6.30;;;4.68;;
10823;SDS011;39116;59.332;18.034;2023-04-25T13:32:36;5.28;;;4.68;;
10823;SDS011;39116;59.332;18.034;2023-04-25T13:35:00;11.60;;;5.10;;
10823;SDS011;39116;59.332;18.034;2023-04-25T13:37:22;7.30;;;4.55;;
10823;SDS011;39116;59.332;18.034;2023-04-25T13:39:45;6.53;;;4.43;;
10823;SDS011;39116;59.332;18.034;2023-04-25T13:42:07;8.52;;;4.22;;
10823;SDS011;39116;59.332;18.034;2023-04-25T13:44:29;7.20;;;4.60;;
10823;SDS011;39116;59.332;18.034;2023-04-25T13:46:50;5.40;;;4.50;;
10823;SDS011;39116;59.332;18.034;2023-04-25T13:49:13;5.25;;;4.28;;
10823;SDS011;39116;59.332;18.034;2023-04-25T13:51:36;6.40;;;4.47;;
10823;SDS011;39116;59.332;18.034;2023-04-25T13:53:58;6.47;;;4.45;;
10823;SDS011;39116;59.332;18.034;2023-04-25T13:56:20;6.88;;;4.80;;
10823;SDS011;39116;59.332;18.034;2023-04-25T13:58:43;5.07;;;4.57;;
10823;SDS011;39116;59.332;18.034;2023-04-25T14:01:05;5.43;;;3.88;;
10823;SDS011;39116;59.332;18.034;2023-04-25T14:03:27;5.82;;;4.50;;